Pagrindinis puslapis
METAR-TAF:

METAR-TAF

Oro uostai :

Bažė, Pietų Rio Grandė, Brazilija

platuma: 31-21S, ilguma: 054-07W, Aukštis: 180 m

Dabartinis oras

Ataskaita buvo paskelbta 9 valandos ir 11 minutes, ne 20:00 UTC
Ramus vėjas
Temperatūra 24°C
Drėgmė 41%
Slėgis 1017 hPa
Matomumas 10 km arba daugiau
nėra debesų žemiau 1500 m ir nėra kamuolinių lietaus debesų

METAR: SBBG 282000Z 00000KT CAVOK 24/10 Q1017

Laikas: 02:11 (05:11 UTC)

Prognozė

Ataskaita buvo paskelbta 8 valandos ir 11 minutes, ne 21:00 UTC
Prognozė galioja nuo 29 metu 00 UTC su 29 metu 24 UTC
Vėjas 5 kt iš Šiaurės/Šiaurės Vakarų
Matomumas 10 km arba daugiau
nėra debesų žemiau 1500 m ir nėra kamuolinių lietaus debesų
Tikimybė 40%
nuo 29 metu 06 UTC su 29 metu 11 UTC
Matomumas: 5000 m
rūkana

TAF: SBBG 282100Z 2900/2924 34005KT CAVOK TN10/2908Z TX26/2918Z PROB40 2906/2911 5000 BR NSC RMK PDW

Orai ataskaitas ir orų prognozės (METAR, TAF).

turimą stotys yra geltonos ir raudonos taškus žemėlapyje.

Perkelti pele per norėdami pamatyti stoties vardą.

Tada spustelėkite, norėdami matyti oro stebėjimo ir prognozės.

Norėdami pakeisti žemėlapį: spustelėkite ant žalios mygtukų su juodo kryžiaus žemyn,; žalią mygtuką su brūkšneliu, jei norite nutolinti; arba žalių rodyklių gretimoms žemėlapius.


METAR-TAF: